sensor_id;sensor_type;location;lat;lon;timestamp;P1;durP1;ratioP1;P2;durP2;ratioP2
71288;SDS011;59068;52.502;9.860;2023-07-02T00:02:19;6.40;;;5.83;;
71288;SDS011;59068;52.502;9.860;2023-07-02T00:04:45;5.80;;;4.93;;
71288;SDS011;59068;52.502;9.860;2023-07-02T00:07:10;5.83;;;5.23;;
71288;SDS011;59068;52.502;9.860;2023-07-02T00:09:36;5.63;;;5.17;;
71288;SDS011;59068;52.502;9.860;2023-07-02T00:12:01;7.67;;;5.27;;
71288;SDS011;59068;52.502;9.860;2023-07-02T00:14:27;7.20;;;5.07;;
71288;SDS011;59068;52.502;9.860;2023-07-02T00:16:52;6.87;;;5.30;;
71288;SDS011;59068;52.502;9.860;2023-07-02T00:19:17;7.77;;;4.93;;
71288;SDS011;59068;52.502;9.860;2023-07-02T00:21:43;4.93;;;4.50;;
71288;SDS011;59068;52.502;9.860;2023-07-02T00:24:08;5.97;;;4.87;;
71288;SDS011;59068;52.502;9.860;2023-07-02T00:26:37;5.53;;;5.03;;
71288;SDS011;59068;52.502;9.860;2023-07-02T00:29:03;5.63;;;5.13;;
71288;SDS011;59068;52.502;9.860;2023-07-02T00:31:30;5.90;;;5.13;;
71288;SDS011;59068;52.502;9.860;2023-07-02T00:33:56;6.63;;;4.90;;
71288;SDS011;59068;52.502;9.860;2023-07-02T00:36:22;5.27;;;4.73;;
71288;SDS011;59068;52.502;9.860;2023-07-02T00:38:50;6.67;;;5.13;;
71288;SDS011;59068;52.502;9.860;2023-07-02T00:41:15;5.90;;;4.80;;
71288;SDS011;59068;52.502;9.860;2023-07-02T00:43:41;6.70;;;4.97;;
71288;SDS011;59068;52.502;9.860;2023-07-02T00:46:09;4.90;;;4.57;;
71288;SDS011;59068;52.502;9.860;2023-07-02T00:48:38;4.90;;;4.43;;
71288;SDS011;59068;52.502;9.860;2023-07-02T00:51:03;7.10;;;5.13;;
71288;SDS011;59068;52.502;9.860;2023-07-02T00:53:29;6.37;;;4.57;;
71288;SDS011;59068;52.502;9.860;2023-07-02T00:55:54;6.93;;;4.60;;
71288;SDS011;59068;52.502;9.860;2023-07-02T00:58:20;6.87;;;4.60;;
71288;SDS011;59068;52.502;9.860;2023-07-02T01:00:45;4.83;;;4.23;;
71288;SDS011;59068;52.502;9.860;2023-07-02T01:03:11;5.13;;;4.10;;
71288;SDS011;59068;52.502;9.860;2023-07-02T01:05:37;4.30;;;3.83;;
71288;SDS011;59068;52.502;9.860;2023-07-02T01:08:05;5.77;;;3.67;;
71288;SDS011;59068;52.502;9.860;2023-07-02T01:10:31;6.17;;;3.77;;
71288;SDS011;59068;52.502;9.860;2023-07-02T01:13:00;5.43;;;3.30;;
71288;SDS011;59068;52.502;9.860;2023-07-02T01:15:27;4.43;;;4.03;;
71288;SDS011;59068;52.502;9.860;2023-07-02T01:17:52;4.43;;;3.70;;
71288;SDS011;59068;52.502;9.860;2023-07-02T01:20:18;4.10;;;3.80;;
71288;SDS011;59068;52.502;9.860;2023-07-02T01:22:45;4.50;;;3.83;;
71288;SDS011;59068;52.502;9.860;2023-07-02T01:25:11;4.80;;;3.70;;
71288;SDS011;59068;52.502;9.860;2023-07-02T01:27:37;4.67;;;3.50;;
71288;SDS011;59068;52.502;9.860;2023-07-02T01:30:02;5.60;;;3.50;;
71288;SDS011;59068;52.502;9.860;2023-07-02T01:32:29;5.30;;;3.43;;
71288;SDS011;59068;52.502;9.860;2023-07-02T01:34:54;4.27;;;3.70;;
71288;SDS011;59068;52.502;9.860;2023-07-02T01:37:20;4.67;;;3.53;;
71288;SDS011;59068;52.502;9.860;2023-07-02T01:39:45;5.20;;;3.63;;
71288;SDS011;59068;52.502;9.860;2023-07-02T01:42:12;3.47;;;3.17;;
71288;SDS011;59068;52.502;9.860;2023-07-02T01:44:44;4.77;;;3.50;;
71288;SDS011;59068;52.502;9.860;2023-07-02T01:47:12;4.93;;;4.00;;
71288;SDS011;59068;52.502;9.860;2023-07-02T01:49:38;3.97;;;3.57;;
71288;SDS011;59068;52.502;9.860;2023-07-02T01:52:04;8.13;;;3.87;;
71288;SDS011;59068;52.502;9.860;2023-07-02T01:54:30;5.93;;;4.07;;
71288;SDS011;59068;52.502;9.860;2023-07-02T01:56:59;5.10;;;4.00;;
71288;SDS011;59068;52.502;9.860;2023-07-02T01:59:24;4.17;;;3.70;;
71288;SDS011;59068;52.502;9.860;2023-07-02T02:01:50;9.03;;;4.80;;
71288;SDS011;59068;52.502;9.860;2023-07-02T02:04:16;6.53;;;3.83;;
71288;SDS011;59068;52.502;9.860;2023-07-02T02:06:41;4.50;;;4.10;;
71288;SDS011;59068;52.502;9.860;2023-07-02T02:09:07;7.97;;;4.90;;
71288;SDS011;59068;52.502;9.860;2023-07-02T02:11:34;5.13;;;4.20;;
71288;SDS011;59068;52.502;9.860;2023-07-02T02:14:02;4.83;;;4.43;;
71288;SDS011;59068;52.502;9.860;2023-07-02T02:16:27;6.50;;;4.87;;
71288;SDS011;59068;52.502;9.860;2023-07-02T02:18:53;8.27;;;5.00;;
71288;SDS011;59068;52.502;9.860;2023-07-02T02:21:19;4.97;;;4.37;;
71288;SDS011;59068;52.502;9.860;2023-07-02T02:23:45;5.97;;;4.83;;
71288;SDS011;59068;52.502;9.860;2023-07-02T02:26:10;5.37;;;4.93;;
71288;SDS011;59068;52.502;9.860;2023-07-02T02:28:36;5.10;;;4.60;;
71288;SDS011;59068;52.502;9.860;2023-07-02T02:31:01;6.97;;;5.00;;
71288;SDS011;59068;52.502;9.860;2023-07-02T02:33:27;7.60;;;5.20;;
71288;SDS011;59068;52.502;9.860;2023-07-02T02:35:53;5.53;;;5.13;;
71288;SDS011;59068;52.502;9.860;2023-07-02T02:38:18;5.80;;;5.23;;
71288;SDS011;59068;52.502;9.860;2023-07-02T02:40:43;5.43;;;4.73;;
71288;SDS011;59068;52.502;9.860;2023-07-02T02:43:09;6.40;;;5.40;;
71288;SDS011;59068;52.502;9.860;2023-07-02T02:45:34;10.83;;;5.90;;
71288;SDS011;59068;52.502;9.860;2023-07-02T02:47:59;6.10;;;5.50;;
71288;SDS011;59068;52.502;9.860;2023-07-02T02:50:24;7.00;;;5.73;;
71288;SDS011;59068;52.502;9.860;2023-07-02T02:52:50;7.97;;;5.87;;
71288;SDS011;59068;52.502;9.860;2023-07-02T02:55:15;6.53;;;5.73;;
71288;SDS011;59068;52.502;9.860;2023-07-02T02:57:41;6.90;;;6.20;;
71288;SDS011;59068;52.502;9.860;2023-07-02T03:00:08;6.30;;;5.80;;
71288;SDS011;59068;52.502;9.860;2023-07-02T03:02:34;8.17;;;6.13;;
71288;SDS011;59068;52.502;9.860;2023-07-02T03:05:00;7.17;;;5.70;;
71288;SDS011;59068;52.502;9.860;2023-07-02T03:07:28;11.20;;;6.37;;
71288;SDS011;59068;52.502;9.860;2023-07-02T03:09:53;6.70;;;6.00;;
71288;SDS011;59068;52.502;9.860;2023-07-02T03:12:19;7.30;;;5.90;;
71288;SDS011;59068;52.502;9.860;2023-07-02T03:14:44;6.87;;;6.17;;
71288;SDS011;59068;52.502;9.860;2023-07-02T03:17:10;9.73;;;6.47;;
71288;SDS011;59068;52.502;9.860;2023-07-02T03:19:35;7.23;;;6.63;;
71288;SDS011;59068;52.502;9.860;2023-07-02T03:22:00;6.80;;;5.70;;
71288;SDS011;59068;52.502;9.860;2023-07-02T03:24:26;9.70;;;5.73;;
71288;SDS011;59068;52.502;9.860;2023-07-02T03:26:51;7.47;;;5.60;;
71288;SDS011;59068;52.502;9.860;2023-07-02T03:29:16;7.00;;;5.27;;
71288;SDS011;59068;52.502;9.860;2023-07-02T03:31:44;5.60;;;5.20;;
71288;SDS011;59068;52.502;9.860;2023-07-02T03:34:10;7.00;;;5.53;;
71288;SDS011;59068;52.502;9.860;2023-07-02T03:36:35;6.23;;;5.70;;
71288;SDS011;59068;52.502;9.860;2023-07-02T03:39:02;7.00;;;6.10;;
71288;SDS011;59068;52.502;9.860;2023-07-02T03:41:28;6.80;;;5.50;;
71288;SDS011;59068;52.502;9.860;2023-07-02T03:43:53;6.10;;;5.50;;
71288;SDS011;59068;52.502;9.860;2023-07-02T03:46:19;6.47;;;5.87;;
71288;SDS011;59068;52.502;9.860;2023-07-02T03:48:44;6.40;;;5.80;;
71288;SDS011;59068;52.502;9.860;2023-07-02T03:51:10;7.53;;;5.80;;
71288;SDS011;59068;52.502;9.860;2023-07-02T03:53:37;7.77;;;6.20;;
71288;SDS011;59068;52.502;9.860;2023-07-02T03:56:03;9.73;;;7.10;;
71288;SDS011;59068;52.502;9.860;2023-07-02T03:58:28;7.20;;;6.50;;
71288;SDS011;59068;52.502;9.860;2023-07-02T04:00:53;7.13;;;6.47;;
71288;SDS011;59068;52.502;9.860;2023-07-02T04:03:19;7.07;;;6.47;;
71288;SDS011;59068;52.502;9.860;2023-07-02T04:05:44;7.17;;;6.47;;
71288;SDS011;59068;52.502;9.860;2023-07-02T04:08:09;9.57;;;7.33;;
71288;SDS011;59068;52.502;9.860;2023-07-02T04:10:35;8.83;;;7.10;;
71288;SDS011;59068;52.502;9.860;2023-07-02T04:13:00;8.87;;;6.83;;
71288;SDS011;59068;52.502;9.860;2023-07-02T04:15:26;7.37;;;6.80;;
71288;SDS011;59068;52.502;9.860;2023-07-02T04:17:52;8.93;;;6.90;;
71288;SDS011;59068;52.502;9.860;2023-07-02T04:20:17;8.37;;;6.37;;
71288;SDS011;59068;52.502;9.860;2023-07-02T04:22:44;8.30;;;6.87;;
71288;SDS011;59068;52.502;9.860;2023-07-02T04:25:10;9.07;;;6.37;;
71288;SDS011;59068;52.502;9.860;2023-07-02T04:27:40;7.23;;;6.50;;
71288;SDS011;59068;52.502;9.860;2023-07-02T04:30:09;7.30;;;6.33;;
71288;SDS011;59068;52.502;9.860;2023-07-02T04:32:36;7.80;;;7.03;;
71288;SDS011;59068;52.502;9.860;2023-07-02T04:35:01;8.93;;;6.87;;
71288;SDS011;59068;52.502;9.860;2023-07-02T04:37:27;8.37;;;6.67;;
71288;SDS011;59068;52.502;9.860;2023-07-02T04:39:55;10.30;;;7.70;;
71288;SDS011;59068;52.502;9.860;2023-07-02T04:42:20;8.37;;;7.67;;
71288;SDS011;59068;52.502;9.860;2023-07-02T04:44:46;10.23;;;7.20;;
71288;SDS011;59068;52.502;9.860;2023-07-02T04:47:11;8.03;;;7.27;;
71288;SDS011;59068;52.502;9.860;2023-07-02T04:49:37;8.80;;;7.90;;
71288;SDS011;59068;52.502;9.860;2023-07-02T04:52:06;8.23;;;7.43;;
71288;SDS011;59068;52.502;9.860;2023-07-02T04:54:31;9.17;;;7.63;;
71288;SDS011;59068;52.502;9.860;2023-07-02T04:56:56;8.87;;;8.03;;
71288;SDS011;59068;52.502;9.860;2023-07-02T04:59:23;10.47;;;7.83;;
71288;SDS011;59068;52.502;9.860;2023-07-02T05:01:49;10.10;;;7.97;;
71288;SDS011;59068;52.502;9.860;2023-07-02T05:04:14;8.80;;;7.50;;
71288;SDS011;59068;52.502;9.860;2023-07-02T05:06:40;9.20;;;8.13;;
71288;SDS011;59068;52.502;9.860;2023-07-02T05:09:05;8.83;;;7.93;;
71288;SDS011;59068;52.502;9.860;2023-07-02T05:11:30;8.93;;;8.13;;
71288;SDS011;59068;52.502;9.860;2023-07-02T05:13:56;8.50;;;7.80;;
71288;SDS011;59068;52.502;9.860;2023-07-02T05:16:21;9.03;;;8.13;;
71288;SDS011;59068;52.502;9.860;2023-07-02T05:18:46;8.90;;;7.93;;
71288;SDS011;59068;52.502;9.860;2023-07-02T05:21:12;8.90;;;8.00;;
71288;SDS011;59068;52.502;9.860;2023-07-02T05:23:37;8.83;;;8.03;;
71288;SDS011;59068;52.502;9.860;2023-07-02T05:26:02;8.87;;;7.97;;
71288;SDS011;59068;52.502;9.860;2023-07-02T05:28:28;8.10;;;7.30;;
71288;SDS011;59068;52.502;9.860;2023-07-02T05:30:53;9.83;;;8.23;;
71288;SDS011;59068;52.502;9.860;2023-07-02T05:33:19;10.27;;;9.23;;
71288;SDS011;59068;52.502;9.860;2023-07-02T05:35:45;8.20;;;7.40;;
71288;SDS011;59068;52.502;9.860;2023-07-02T05:38:11;10.67;;;7.50;;
71288;SDS011;59068;52.502;9.860;2023-07-02T05:40:36;8.80;;;7.47;;
71288;SDS011;59068;52.502;9.860;2023-07-02T05:43:02;8.97;;;7.50;;
71288;SDS011;59068;52.502;9.860;2023-07-02T05:45:27;10.57;;;7.50;;
71288;SDS011;59068;52.502;9.860;2023-07-02T05:47:53;7.83;;;6.53;;
71288;SDS011;59068;52.502;9.860;2023-07-02T05:50:20;8.40;;;7.60;;
71288;SDS011;59068;52.502;9.860;2023-07-02T05:52:45;8.43;;;6.83;;
71288;SDS011;59068;52.502;9.860;2023-07-02T05:55:11;7.00;;;6.33;;
71288;SDS011;59068;52.502;9.860;2023-07-02T05:57:37;7.23;;;6.20;;
71288;SDS011;59068;52.502;9.860;2023-07-02T06:00:05;8.70;;;6.53;;
71288;SDS011;59068;52.502;9.860;2023-07-02T06:02:31;6.90;;;6.00;;
71288;SDS011;59068;52.502;9.860;2023-07-02T06:04:56;9.53;;;6.07;;
71288;SDS011;59068;52.502;9.860;2023-07-02T06:07:22;8.23;;;5.80;;
71288;SDS011;59068;52.502;9.860;2023-07-02T06:09:49;10.07;;;6.17;;
71288;SDS011;59068;52.502;9.860;2023-07-02T06:12:14;9.37;;;5.90;;
71288;SDS011;59068;52.502;9.860;2023-07-02T06:14:39;8.87;;;6.30;;
71288;SDS011;59068;52.502;9.860;2023-07-02T06:17:05;8.67;;;5.90;;
71288;SDS011;59068;52.502;9.860;2023-07-02T06:19:32;8.97;;;5.90;;
71288;SDS011;59068;52.502;9.860;2023-07-02T06:21:58;6.00;;;5.40;;
71288;SDS011;59068;52.502;9.860;2023-07-02T06:24:23;10.37;;;5.87;;
71288;SDS011;59068;52.502;9.860;2023-07-02T06:26:49;8.70;;;5.77;;
71288;SDS011;59068;52.502;9.860;2023-07-02T06:29:14;9.13;;;6.03;;
71288;SDS011;59068;52.502;9.860;2023-07-02T06:31:39;11.23;;;5.63;;
71288;SDS011;59068;52.502;9.860;2023-07-02T06:34:05;10.60;;;5.90;;
71288;SDS011;59068;52.502;9.860;2023-07-02T06:36:31;11.57;;;5.10;;
71288;SDS011;59068;52.502;9.860;2023-07-02T06:38:56;8.80;;;6.13;;
71288;SDS011;59068;52.502;9.860;2023-07-02T06:41:22;11.53;;;5.90;;
71288;SDS011;59068;52.502;9.860;2023-07-02T06:43:47;9.97;;;5.57;;
71288;SDS011;59068;52.502;9.860;2023-07-02T06:46:13;11.97;;;5.10;;
71288;SDS011;59068;52.502;9.860;2023-07-02T06:48:38;12.40;;;6.40;;
71288;SDS011;59068;52.502;9.860;2023-07-02T06:51:03;11.90;;;5.93;;
71288;SDS011;59068;52.502;9.860;2023-07-02T06:53:29;9.40;;;5.77;;
71288;SDS011;59068;52.502;9.860;2023-07-02T06:55:54;11.23;;;5.77;;
71288;SDS011;59068;52.502;9.860;2023-07-02T06:58:20;8.47;;;5.47;;
71288;SDS011;59068;52.502;9.860;2023-07-02T07:00:45;10.53;;;5.43;;
71288;SDS011;59068;52.502;9.860;2023-07-02T07:03:11;9.80;;;5.10;;
71288;SDS011;59068;52.502;9.860;2023-07-02T07:05:36;9.27;;;5.53;;
71288;SDS011;59068;52.502;9.860;2023-07-02T07:08:01;11.07;;;5.37;;
71288;SDS011;59068;52.502;9.860;2023-07-02T07:10:27;9.37;;;5.17;;
71288;SDS011;59068;52.502;9.860;2023-07-02T07:12:53;8.90;;;5.00;;
71288;SDS011;59068;52.502;9.860;2023-07-02T07:15:18;12.20;;;5.67;;
71288;SDS011;59068;52.502;9.860;2023-07-02T07:17:43;10.97;;;5.23;;
71288;SDS011;59068;52.502;9.860;2023-07-02T07:20:09;7.80;;;4.77;;
71288;SDS011;59068;52.502;9.860;2023-07-02T07:22:34;10.23;;;5.50;;
71288;SDS011;59068;52.502;9.860;2023-07-02T07:25:00;10.43;;;5.70;;
71288;SDS011;59068;52.502;9.860;2023-07-02T07:27:25;10.77;;;5.53;;
71288;SDS011;59068;52.502;9.860;2023-07-02T07:29:51;13.17;;;5.77;;
71288;SDS011;59068;52.502;9.860;2023-07-02T07:32:16;16.07;;;6.47;;
71288;SDS011;59068;52.502;9.860;2023-07-02T07:34:42;11.07;;;5.40;;
71288;SDS011;59068;52.502;9.860;2023-07-02T07:37:07;8.73;;;5.73;;
71288;SDS011;59068;52.502;9.860;2023-07-02T07:39:33;15.57;;;6.10;;
71288;SDS011;59068;52.502;9.860;2023-07-02T07:41:58;15.37;;;6.20;;
71288;SDS011;59068;52.502;9.860;2023-07-02T07:44:24;13.20;;;6.17;;
71288;SDS011;59068;52.502;9.860;2023-07-02T07:46:54;8.80;;;5.13;;
71288;SDS011;59068;52.502;9.860;2023-07-02T07:49:20;9.20;;;5.73;;
71288;SDS011;59068;52.502;9.860;2023-07-02T07:51:46;11.20;;;6.20;;
71288;SDS011;59068;52.502;9.860;2023-07-02T07:54:11;10.97;;;5.63;;
71288;SDS011;59068;52.502;9.860;2023-07-02T07:56:36;8.13;;;5.20;;
71288;SDS011;59068;52.502;9.860;2023-07-02T07:59:02;12.30;;;5.90;;
71288;SDS011;59068;52.502;9.860;2023-07-02T08:01:27;10.90;;;6.07;;
71288;SDS011;59068;52.502;9.860;2023-07-02T08:03:53;8.03;;;5.17;;
71288;SDS011;59068;52.502;9.860;2023-07-02T08:06:18;12.13;;;5.73;;
71288;SDS011;59068;52.502;9.860;2023-07-02T08:08:44;8.77;;;4.90;;
71288;SDS011;59068;52.502;9.860;2023-07-02T08:11:09;10.27;;;5.13;;
71288;SDS011;59068;52.502;9.860;2023-07-02T08:13:34;11.07;;;5.23;;
71288;SDS011;59068;52.502;9.860;2023-07-02T08:16:00;10.87;;;5.40;;
71288;SDS011;59068;52.502;9.860;2023-07-02T08:18:25;9.37;;;5.80;;
71288;SDS011;59068;52.502;9.860;2023-07-02T08:20:50;11.10;;;5.80;;
71288;SDS011;59068;52.502;9.860;2023-07-02T08:23:16;9.13;;;5.33;;
71288;SDS011;59068;52.502;9.860;2023-07-02T08:25:41;11.13;;;5.70;;
71288;SDS011;59068;52.502;9.860;2023-07-02T08:28:06;10.13;;;6.00;;
71288;SDS011;59068;52.502;9.860;2023-07-02T08:30:32;10.10;;;5.70;;
71288;SDS011;59068;52.502;9.860;2023-07-02T08:32:57;10.13;;;6.10;;
71288;SDS011;59068;52.502;9.860;2023-07-02T08:35:22;8.60;;;5.10;;
71288;SDS011;59068;52.502;9.860;2023-07-02T08:37:48;9.87;;;5.87;;
71288;SDS011;59068;52.502;9.860;2023-07-02T08:40:17;8.87;;;5.53;;
71288;SDS011;59068;52.502;9.860;2023-07-02T08:42:45;9.37;;;5.07;;
71288;SDS011;59068;52.502;9.860;2023-07-02T08:45:14;8.67;;;5.30;;
71288;SDS011;59068;52.502;9.860;2023-07-02T08:47:41;13.37;;;6.13;;
71288;SDS011;59068;52.502;9.860;2023-07-02T08:50:06;11.30;;;5.47;;
71288;SDS011;59068;52.502;9.860;2023-07-02T08:52:32;11.27;;;5.97;;
71288;SDS011;59068;52.502;9.860;2023-07-02T08:54:57;12.10;;;6.67;;
71288;SDS011;59068;52.502;9.860;2023-07-02T08:57:23;12.03;;;5.87;;
71288;SDS011;59068;52.502;9.860;2023-07-02T08:59:48;10.07;;;5.73;;
71288;SDS011;59068;52.502;9.860;2023-07-02T09:02:16;12.10;;;5.87;;
71288;SDS011;59068;52.502;9.860;2023-07-02T09:04:41;12.23;;;6.27;;
71288;SDS011;59068;52.502;9.860;2023-07-02T09:07:07;11.70;;;5.60;;
71288;SDS011;59068;52.502;9.860;2023-07-02T09:09:47;10.67;;;5.97;;
71288;SDS011;59068;52.502;9.860;2023-07-02T09:14:54;13.63;;;6.23;;
71288;SDS011;59068;52.502;9.860;2023-07-02T09:17:26;9.50;;;5.97;;
71288;SDS011;59068;52.502;9.860;2023-07-02T09:19:52;12.40;;;5.80;;
71288;SDS011;59068;52.502;9.860;2023-07-02T09:22:17;14.23;;;5.93;;
71288;SDS011;59068;52.502;9.860;2023-07-02T09:24:50;10.43;;;5.80;;
71288;SDS011;59068;52.502;9.860;2023-07-02T09:27:18;10.27;;;5.80;;
71288;SDS011;59068;52.502;9.860;2023-07-02T09:29:43;9.37;;;5.77;;
71288;SDS011;59068;52.502;9.860;2023-07-02T09:32:23;11.07;;;5.80;;
71288;SDS011;59068;52.502;9.860;2023-07-02T09:34:50;12.67;;;6.20;;
71288;SDS011;59068;52.502;9.860;2023-07-02T09:37:15;10.70;;;6.40;;
71288;SDS011;59068;52.502;9.860;2023-07-02T09:39:41;13.30;;;6.40;;
71288;SDS011;59068;52.502;9.860;2023-07-02T09:42:06;10.40;;;5.57;;
71288;SDS011;59068;52.502;9.860;2023-07-02T09:44:33;9.73;;;6.43;;
71288;SDS011;59068;52.502;9.860;2023-07-02T09:47:07;12.80;;;6.70;;
71288;SDS011;59068;52.502;9.860;2023-07-02T09:49:33;11.10;;;5.83;;
71288;SDS011;59068;52.502;9.860;2023-07-02T09:52:00;10.93;;;6.10;;
71288;SDS011;59068;52.502;9.860;2023-07-02T09:54:27;11.17;;;6.60;;
71288;SDS011;59068;52.502;9.860;2023-07-02T09:56:53;9.70;;;6.33;;
71288;SDS011;59068;52.502;9.860;2023-07-02T09:59:19;14.87;;;6.13;;
71288;SDS011;59068;52.502;9.860;2023-07-02T10:01:44;11.53;;;6.87;;
71288;SDS011;59068;52.502;9.860;2023-07-02T10:04:11;9.60;;;6.27;;
71288;SDS011;59068;52.502;9.860;2023-07-02T10:09:19;9.87;;;5.83;;
71288;SDS011;59068;52.502;9.860;2023-07-02T10:11:45;11.87;;;7.33;;
71288;SDS011;59068;52.502;9.860;2023-07-02T10:14:10;10.47;;;5.70;;
71288;SDS011;59068;52.502;9.860;2023-07-02T10:16:49;9.33;;;5.83;;
71288;SDS011;59068;52.502;9.860;2023-07-02T10:19:18;13.90;;;6.37;;
71288;SDS011;59068;52.502;9.860;2023-07-02T10:21:43;10.00;;;6.53;;
71288;SDS011;59068;52.502;9.860;2023-07-02T10:26:55;11.20;;;5.97;;
71288;SDS011;59068;52.502;9.860;2023-07-02T10:29:25;13.93;;;6.57;;
71288;SDS011;59068;52.502;9.860;2023-07-02T10:31:52;11.23;;;6.10;;
71288;SDS011;59068;52.502;9.860;2023-07-02T10:34:34;11.03;;;5.50;;
71288;SDS011;59068;52.502;9.860;2023-07-02T10:37:03;10.20;;;6.23;;
71288;SDS011;59068;52.502;9.860;2023-07-02T10:39:29;10.63;;;6.00;;
71288;SDS011;59068;52.502;9.860;2023-07-02T10:42:07;11.97;;;6.07;;
71288;SDS011;59068;52.502;9.860;2023-07-02T10:44:34;10.43;;;6.33;;
71288;SDS011;59068;52.502;9.860;2023-07-02T10:47:00;9.83;;;6.03;;
71288;SDS011;59068;52.502;9.860;2023-07-02T10:49:32;9.93;;;6.77;;
71288;SDS011;59068;52.502;9.860;2023-07-02T10:51:58;8.80;;;5.87;;
71288;SDS011;59068;52.502;9.860;2023-07-02T10:54:24;11.07;;;6.17;;
71288;SDS011;59068;52.502;9.860;2023-07-02T10:56:50;8.80;;;5.50;;
71288;SDS011;59068;52.502;9.860;2023-07-02T10:59:25;11.57;;;5.80;;
71288;SDS011;59068;52.502;9.860;2023-07-02T11:01:50;10.50;;;5.50;;
71288;SDS011;59068;52.502;9.860;2023-07-02T11:04:16;9.97;;;5.93;;
71288;SDS011;59068;52.502;9.860;2023-07-02T11:06:41;10.07;;;5.60;;
71288;SDS011;59068;52.502;9.860;2023-07-02T11:09:15;8.80;;;5.30;;
71288;SDS011;59068;52.502;9.860;2023-07-02T11:11:57;9.63;;;5.60;;
71288;SDS011;59068;52.502;9.860;2023-07-02T11:16:55;8.93;;;5.13;;
71288;SDS011;59068;52.502;9.860;2023-07-02T11:19:21;8.27;;;4.93;;
71288;SDS011;59068;52.502;9.860;2023-07-02T11:21:50;10.87;;;5.40;;
71288;SDS011;59068;52.502;9.860;2023-07-02T11:24:25;7.87;;;5.00;;
71288;SDS011;59068;52.502;9.860;2023-07-02T11:26:54;9.13;;;5.13;;
71288;SDS011;59068;52.502;9.860;2023-07-02T11:29:19;12.13;;;6.03;;
71288;SDS011;59068;52.502;9.860;2023-07-02T11:31:45;11.03;;;5.20;;
71288;SDS011;59068;52.502;9.860;2023-07-02T11:34:13;10.17;;;5.53;;
71288;SDS011;59068;52.502;9.860;2023-07-02T11:36:39;9.73;;;5.00;;
71288;SDS011;59068;52.502;9.860;2023-07-02T11:39:05;8.53;;;4.80;;
71288;SDS011;59068;52.502;9.860;2023-07-02T11:41:37;10.90;;;5.77;;
71288;SDS011;59068;52.502;9.860;2023-07-02T11:44:07;10.10;;;5.17;;
71288;SDS011;59068;52.502;9.860;2023-07-02T11:46:33;8.90;;;4.60;;
71288;SDS011;59068;52.502;9.860;2023-07-02T11:49:02;8.00;;;4.60;;
71288;SDS011;59068;52.502;9.860;2023-07-02T11:51:29;8.10;;;5.20;;
71288;SDS011;59068;52.502;9.860;2023-07-02T11:53:55;9.03;;;5.63;;
71288;SDS011;59068;52.502;9.860;2023-07-02T11:56:20;7.70;;;5.00;;
71288;SDS011;59068;52.502;9.860;2023-07-02T11:58:46;10.53;;;5.40;;
71288;SDS011;59068;52.502;9.860;2023-07-02T12:01:11;8.77;;;5.27;;
71288;SDS011;59068;52.502;9.860;2023-07-02T12:03:36;8.80;;;4.03;;
71288;SDS011;59068;52.502;9.860;2023-07-02T12:06:02;10.13;;;5.20;;
71288;SDS011;59068;52.502;9.860;2023-07-02T12:08:27;8.40;;;5.30;;
71288;SDS011;59068;52.502;9.860;2023-07-02T12:10:52;9.10;;;5.23;;
71288;SDS011;59068;52.502;9.860;2023-07-02T12:13:18;8.20;;;5.10;;
71288;SDS011;59068;52.502;9.860;2023-07-02T12:15:46;8.53;;;4.93;;
71288;SDS011;59068;52.502;9.860;2023-07-02T12:18:12;7.67;;;5.43;;
71288;SDS011;59068;52.502;9.860;2023-07-02T12:20:38;8.43;;;5.27;;
71288;SDS011;59068;52.502;9.860;2023-07-02T12:23:04;9.80;;;5.03;;
71288;SDS011;59068;52.502;9.860;2023-07-02T12:25:30;8.03;;;4.97;;
71288;SDS011;59068;52.502;9.860;2023-07-02T12:27:56;10.03;;;4.90;;
71288;SDS011;59068;52.502;9.860;2023-07-02T12:30:21;8.87;;;5.10;;
71288;SDS011;59068;52.502;9.860;2023-07-02T12:32:47;7.13;;;4.37;;
71288;SDS011;59068;52.502;9.860;2023-07-02T12:35:12;8.87;;;5.40;;
71288;SDS011;59068;52.502;9.860;2023-07-02T12:37:44;7.83;;;4.67;;
71288;SDS011;59068;52.502;9.860;2023-07-02T12:40:11;8.47;;;4.43;;
71288;SDS011;59068;52.502;9.860;2023-07-02T12:42:37;7.67;;;4.47;;
71288;SDS011;59068;52.502;9.860;2023-07-02T12:45:02;7.80;;;5.33;;
71288;SDS011;59068;52.502;9.860;2023-07-02T12:47:28;8.50;;;4.77;;
71288;SDS011;59068;52.502;9.860;2023-07-02T12:49:54;7.80;;;5.13;;
71288;SDS011;59068;52.502;9.860;2023-07-02T12:52:19;8.73;;;5.20;;
71288;SDS011;59068;52.502;9.860;2023-07-02T12:54:44;11.43;;;5.10;;
71288;SDS011;59068;52.502;9.860;2023-07-02T12:57:10;8.37;;;5.27;;
71288;SDS011;59068;52.502;9.860;2023-07-02T12:59:35;9.47;;;5.10;;
71288;SDS011;59068;52.502;9.860;2023-07-02T13:02:00;6.97;;;4.53;;
71288;SDS011;59068;52.502;9.860;2023-07-02T13:04:29;8.80;;;4.73;;
71288;SDS011;59068;52.502;9.860;2023-07-02T13:06:54;7.03;;;4.40;;
71288;SDS011;59068;52.502;9.860;2023-07-02T13:09:20;8.97;;;4.83;;
71288;SDS011;59068;52.502;9.860;2023-07-02T13:11:46;8.17;;;5.13;;
71288;SDS011;59068;52.502;9.860;2023-07-02T13:14:11;5.70;;;4.20;;
71288;SDS011;59068;52.502;9.860;2023-07-02T13:16:37;6.87;;;4.30;;
71288;SDS011;59068;52.502;9.860;2023-07-02T13:19:02;6.73;;;4.33;;
71288;SDS011;59068;52.502;9.860;2023-07-02T13:21:28;8.17;;;4.57;;
71288;SDS011;59068;52.502;9.860;2023-07-02T13:23:53;9.87;;;5.33;;
71288;SDS011;59068;52.502;9.860;2023-07-02T13:26:18;7.93;;;4.40;;
71288;SDS011;59068;52.502;9.860;2023-07-02T13:28:44;8.83;;;4.67;;
71288;SDS011;59068;52.502;9.860;2023-07-02T13:31:12;7.57;;;5.00;;
71288;SDS011;59068;52.502;9.860;2023-07-02T13:33:38;6.90;;;4.17;;
71288;SDS011;59068;52.502;9.860;2023-07-02T13:36:04;8.60;;;4.53;;
71288;SDS011;59068;52.502;9.860;2023-07-02T13:38:30;7.03;;;4.40;;
71288;SDS011;59068;52.502;9.860;2023-07-02T13:40:56;6.57;;;4.77;;
71288;SDS011;59068;52.502;9.860;2023-07-02T13:43:21;7.13;;;4.00;;
71288;SDS011;59068;52.502;9.860;2023-07-02T13:45:47;7.00;;;5.07;;
71288;SDS011;59068;52.502;9.860;2023-07-02T13:48:12;9.37;;;4.93;;
71288;SDS011;59068;52.502;9.860;2023-07-02T13:50:37;7.37;;;4.63;;
71288;SDS011;59068;52.502;9.860;2023-07-02T13:53:03;6.57;;;4.77;;
71288;SDS011;59068;52.502;9.860;2023-07-02T13:55:28;8.37;;;4.17;;
71288;SDS011;59068;52.502;9.860;2023-07-02T13:57:55;9.23;;;4.40;;
71288;SDS011;59068;52.502;9.860;2023-07-02T14:00:22;8.20;;;4.60;;
71288;SDS011;59068;52.502;9.860;2023-07-02T14:02:47;6.70;;;4.27;;
71288;SDS011;59068;52.502;9.860;2023-07-02T14:05:13;8.40;;;4.53;;
71288;SDS011;59068;52.502;9.860;2023-07-02T14:07:38;11.30;;;4.30;;
71288;SDS011;59068;52.502;9.860;2023-07-02T14:10:03;10.17;;;4.20;;
71288;SDS011;59068;52.502;9.860;2023-07-02T14:12:29;7.67;;;4.07;;
71288;SDS011;59068;52.502;9.860;2023-07-02T14:14:55;8.00;;;4.27;;
71288;SDS011;59068;52.502;9.860;2023-07-02T14:17:20;5.80;;;4.30;;
71288;SDS011;59068;52.502;9.860;2023-07-02T14:19:45;8.93;;;4.80;;
71288;SDS011;59068;52.502;9.860;2023-07-02T14:22:11;5.97;;;3.70;;
71288;SDS011;59068;52.502;9.860;2023-07-02T14:24:36;7.20;;;3.50;;
71288;SDS011;59068;52.502;9.860;2023-07-02T14:27:01;10.03;;;3.93;;
71288;SDS011;59068;52.502;9.860;2023-07-02T14:29:27;5.63;;;3.47;;
71288;SDS011;59068;52.502;9.860;2023-07-02T14:31:52;5.27;;;3.67;;
71288;SDS011;59068;52.502;9.860;2023-07-02T14:34:18;5.67;;;3.40;;
71288;SDS011;59068;52.502;9.860;2023-07-02T14:36:43;7.37;;;4.10;;
71288;SDS011;59068;52.502;9.860;2023-07-02T14:39:08;6.20;;;4.10;;
71288;SDS011;59068;52.502;9.860;2023-07-02T14:41:34;6.20;;;4.10;;
71288;SDS011;59068;52.502;9.860;2023-07-02T14:44:02;7.93;;;4.30;;
71288;SDS011;59068;52.502;9.860;2023-07-02T14:46:28;4.73;;;3.47;;
71288;SDS011;59068;52.502;9.860;2023-07-02T14:48:53;5.00;;;3.07;;